createdAt,value
2023-03-27T00:03:18.386Z,7.72
2023-03-27T00:08:26.533Z,7.61
2023-03-27T00:13:34.919Z,7.52
2023-03-27T00:18:42.768Z,7.48
2023-03-27T00:23:50.828Z,7.47
2023-03-27T00:28:58.119Z,7.51
2023-03-27T00:34:05.534Z,7.50
2023-03-27T00:45:16.265Z,7.48
2023-03-27T00:50:26.136Z,7.55
2023-03-27T00:55:33.853Z,7.61
2023-03-27T01:00:38.294Z,7.63
2023-03-27T01:05:43.656Z,7.65
2023-03-27T01:10:58.975Z,7.67
2023-03-27T01:19:38.806Z,7.70
2023-03-27T01:25:13.953Z,7.67
2023-03-27T01:30:28.880Z,7.67
2023-03-27T01:36:18.377Z,7.64
2023-03-27T01:41:31.793Z,7.59
2023-03-27T01:46:46.629Z,7.55
2023-03-27T01:52:01.585Z,7.54
2023-03-27T01:57:16.671Z,7.54
2023-03-27T02:02:30.188Z,7.52
2023-03-27T02:07:42.861Z,7.53
2023-03-27T02:12:56.335Z,7.50
2023-03-27T02:18:06.407Z,7.48
2023-03-27T02:23:14.297Z,7.49
2023-03-27T02:28:46.388Z,7.50
2023-03-27T02:34:16.973Z,7.48
2023-03-27T02:39:34.009Z,7.44
2023-03-27T02:44:51.874Z,7.39
2023-03-27T02:50:04.787Z,7.36
2023-03-27T02:55:17.735Z,7.33
2023-03-27T03:00:28.954Z,7.31
2023-03-27T03:05:38.309Z,7.28
2023-03-27T03:10:49.917Z,7.25
2023-03-27T03:15:57.867Z,7.23
2023-03-27T03:21:06.102Z,7.18
2023-03-27T03:26:13.621Z,7.19
2023-03-27T03:31:23.107Z,7.21
2023-03-27T03:36:31.343Z,7.21
2023-03-27T03:41:38.893Z,7.21
2023-03-27T03:46:46.491Z,7.20
2023-03-27T03:52:04.248Z,7.16
2023-03-27T03:57:12.884Z,7.12
2023-03-27T04:02:28.945Z,7.12
2023-03-27T04:07:37.223Z,7.13
2023-03-27T04:12:49.928Z,7.14
2023-03-27T04:17:58.325Z,7.14
2023-03-27T04:23:06.697Z,7.13
2023-03-27T04:28:16.965Z,7.11
2023-03-27T04:33:24.399Z,7.09
2023-03-27T04:38:32.187Z,7.10
2023-03-27T04:43:40.567Z,7.11
2023-03-27T04:48:48.488Z,7.12
2023-03-27T04:53:56.843Z,7.09
2023-03-27T04:59:06.303Z,7.08
2023-03-27T05:04:15.359Z,7.08
2023-03-27T05:09:23.283Z,7.03
2023-03-27T05:14:30.990Z,7.01
2023-03-27T05:19:39.345Z,6.99
2023-03-27T05:24:47.272Z,7.00
2023-03-27T05:29:56.274Z,6.95
2023-03-27T05:35:07.123Z,6.78
2023-03-27T05:48:50.672Z,6.57
2023-03-27T05:54:01.107Z,6.54
2023-03-27T05:59:09.473Z,6.63
2023-03-27T06:04:20.899Z,6.67
2023-03-27T06:09:29.586Z,6.61
2023-03-27T06:14:38.499Z,6.52
2023-03-27T06:19:46.543Z,6.47
2023-03-27T06:24:55.299Z,6.47
2023-03-27T06:30:02.895Z,6.43
2023-03-27T06:35:11.741Z,6.39
2023-03-27T06:40:23.326Z,6.42
2023-03-27T06:45:33.571Z,6.39
2023-03-27T06:50:42.054Z,6.33
2023-03-27T06:55:51.144Z,6.25
2023-03-27T07:00:58.792Z,6.29
2023-03-27T07:06:06.948Z,6.41
2023-03-27T07:11:14.892Z,6.49
2023-03-27T07:16:24.157Z,6.48
2023-03-27T07:21:32.628Z,6.46
2023-03-27T07:26:41.324Z,6.40
2023-03-27T07:37:00.864Z,6.41
2023-03-27T07:42:10.147Z,6.42
2023-03-27T07:47:19.157Z,6.39
2023-03-27T07:52:27.798Z,6.39
2023-03-27T07:57:54.964Z,6.43
2023-03-27T08:03:10.947Z,6.48
2023-03-27T08:08:19.198Z,6.53
2023-03-27T08:13:26.805Z,6.56
2023-03-27T08:18:34.695Z,6.50
2023-03-27T08:23:43.145Z,6.46
2023-03-27T08:28:54.457Z,6.42
2023-03-27T08:34:02.594Z,6.44
2023-03-27T08:39:10.178Z,6.42
2023-03-27T08:44:21.427Z,6.42
2023-03-27T08:49:33.124Z,6.41
2023-03-27T08:54:41.969Z,6.38
2023-03-27T08:59:51.172Z,6.36
2023-03-27T09:05:04.504Z,6.36
2023-03-27T09:10:22.871Z,6.34
2023-03-27T09:15:34.073Z,6.33
2023-03-27T09:20:47.596Z,6.31
2023-03-27T09:25:59.706Z,6.28
2023-03-27T09:31:22.809Z,6.20
2023-03-27T09:36:30.605Z,6.16
2023-03-27T09:41:44.434Z,6.14
2023-03-27T09:46:58.229Z,6.10
2023-03-27T09:52:08.022Z,5.98
2023-03-27T09:57:16.964Z,5.75
2023-03-27T10:02:28.603Z,5.55
2023-03-27T10:07:36.243Z,5.44
2023-03-27T10:12:45.193Z,5.42
2023-03-27T10:17:53.185Z,5.40
2023-03-27T10:23:04.070Z,5.38
2023-03-27T10:28:19.405Z,5.30
2023-03-27T10:33:35.508Z,5.20
2023-03-27T10:38:45.064Z,5.13
2023-03-27T10:43:54.095Z,5.04
2023-03-27T10:49:14.658Z,4.99
2023-03-27T10:54:45.746Z,4.89
2023-03-27T10:59:59.609Z,4.78
2023-03-27T11:05:13.992Z,4.64
2023-03-27T11:10:26.498Z,4.42
2023-03-27T11:15:41.397Z,4.25
2023-03-27T11:20:53.913Z,4.11
2023-03-27T11:26:05.285Z,3.98
2023-03-27T11:31:24.393Z,3.79
2023-03-27T11:36:42.084Z,3.64
2023-03-27T11:46:22.864Z,3.41
2023-03-27T11:51:43.522Z,3.28
2023-03-27T11:56:55.819Z,3.16
2023-03-27T12:02:14.947Z,3.00
2023-03-27T12:07:36.397Z,2.86
2023-03-27T12:13:03.386Z,2.75
2023-03-27T12:18:35.266Z,2.71
2023-03-27T12:24:13.648Z,2.59
2023-03-27T12:29:43.785Z,2.47
2023-03-27T12:34:56.901Z,2.37
2023-03-27T12:40:14.688Z,2.35
2023-03-27T12:45:24.958Z,2.34
2023-03-27T12:50:37.150Z,2.30
2023-03-27T12:55:45.178Z,2.29
2023-03-27T13:01:00.984Z,2.31
2023-03-27T13:06:20.929Z,2.33
2023-03-27T13:11:43.669Z,2.35
2023-03-27T13:17:23.350Z,2.37
2023-03-27T13:22:53.806Z,2.36
2023-03-27T13:28:31.496Z,2.39
2023-03-27T13:33:48.522Z,2.39
2023-03-27T13:39:22.644Z,2.38
2023-03-27T13:44:39.780Z,2.35
2023-03-27T13:50:14.522Z,2.36
2023-03-27T13:55:49.218Z,2.37
2023-03-27T14:01:15.480Z,2.38
2023-03-27T14:07:14.131Z,2.39
2023-03-27T14:12:27.103Z,2.38
2023-03-27T14:17:56.800Z,2.37
2023-03-27T14:23:11.188Z,2.37
2023-03-27T14:28:33.174Z,2.36
2023-03-27T14:33:49.699Z,2.38
2023-03-27T14:39:01.445Z,2.35
2023-03-27T14:44:09.536Z,2.34
2023-03-27T14:49:22.640Z,2.35
2023-03-27T14:54:39.304Z,2.36
2023-03-27T14:59:56.870Z,2.38
2023-03-27T15:05:12.370Z,2.40
2023-03-27T15:10:26.409Z,2.42
2023-03-27T15:15:40.499Z,2.42
2023-03-27T15:20:50.596Z,2.42
2023-03-27T15:26:02.939Z,2.40
2023-03-27T15:31:11.952Z,2.37
2023-03-27T15:36:27.759Z,2.35
2023-03-27T15:41:44.808Z,2.34
2023-03-27T15:46:56.030Z,2.32
2023-03-27T15:52:24.592Z,2.30
2023-03-27T15:57:32.473Z,2.28
2023-03-27T16:02:41.340Z,2.25
2023-03-27T16:07:50.263Z,2.25
2023-03-27T16:13:03.200Z,2.23
2023-03-27T16:18:19.400Z,2.23
2023-03-27T16:23:26.871Z,2.23
2023-03-27T16:28:35.167Z,2.21
2023-03-27T16:33:45.583Z,2.20
2023-03-27T16:38:53.991Z,2.18
2023-03-27T16:44:01.480Z,2.19
2023-03-27T16:49:09.074Z,2.17
2023-03-27T16:54:16.720Z,2.17
2023-03-27T16:59:25.033Z,2.14
2023-03-27T17:04:32.991Z,2.05
2023-03-27T17:09:41.432Z,1.98
2023-03-27T17:14:49.605Z,1.90
2023-03-27T17:19:58.626Z,1.85
2023-03-27T17:25:07.006Z,1.81
2023-03-27T17:30:21.408Z,1.81
2023-03-27T17:35:35.831Z,1.80
2023-03-27T17:40:44.433Z,1.81
2023-03-27T17:45:52.342Z,1.83
2023-03-27T17:51:08.738Z,1.86
2023-03-27T17:56:18.321Z,1.88
2023-03-27T18:01:28.002Z,1.87
2023-03-27T18:06:36.939Z,1.86
2023-03-27T18:11:44.631Z,1.82
2023-03-27T18:16:52.496Z,1.79
2023-03-27T18:22:00.996Z,1.75
2023-03-27T18:27:10.132Z,1.74
2023-03-27T18:32:17.815Z,1.72
2023-03-27T18:37:26.242Z,1.69
2023-03-27T18:42:33.660Z,1.65
2023-03-27T18:47:43.578Z,1.62
2023-03-27T18:52:52.293Z,1.59
2023-03-27T18:57:59.782Z,1.56
2023-03-27T19:03:09.866Z,1.51
2023-03-27T19:08:18.611Z,1.47
2023-03-27T19:13:26.957Z,1.44
2023-03-27T19:18:34.291Z,1.41
2023-03-27T19:23:42.558Z,1.38
2023-03-27T19:28:51.008Z,1.34
2023-03-27T19:33:58.443Z,1.29
2023-03-27T19:39:06.354Z,1.26
2023-03-27T19:44:16.102Z,1.23
2023-03-27T19:49:24.913Z,1.19
2023-03-27T19:54:32.223Z,1.14
2023-03-27T19:59:38.067Z,1.07
2023-03-27T20:04:45.627Z,1.02
2023-03-27T20:09:53.455Z,0.94
2023-03-27T20:15:11.135Z,0.90
2023-03-27T20:20:20.145Z,0.85
2023-03-27T20:25:30.685Z,0.80
2023-03-27T20:30:41.607Z,0.75
2023-03-27T20:35:49.212Z,0.69
2023-03-27T20:40:58.052Z,0.65
2023-03-27T20:46:07.404Z,0.60
2023-03-27T20:51:17.886Z,0.56
2023-03-27T20:56:26.113Z,0.53
2023-03-27T21:01:34.652Z,0.51
2023-03-27T21:06:43.321Z,0.47
2023-03-27T21:11:51.681Z,0.45
2023-03-27T21:16:59.198Z,0.43
2023-03-27T21:22:06.822Z,0.41
2023-03-27T21:27:15.395Z,0.37
2023-03-27T21:32:23.334Z,0.35
2023-03-27T21:37:30.771Z,0.30
2023-03-27T21:42:38.370Z,0.26
2023-03-27T21:47:47.875Z,0.21
2023-03-27T21:52:55.860Z,0.16
2023-03-27T21:58:03.470Z,0.08
2023-03-27T22:03:11.306Z,0.05
2023-03-27T22:08:19.422Z,-0.00
2023-03-27T22:13:27.717Z,-0.05
2023-03-27T22:18:35.846Z,-0.10
2023-03-27T22:23:43.321Z,-0.19
2023-03-27T22:28:52.828Z,-0.24
2023-03-27T22:34:04.486Z,-0.30
2023-03-27T22:39:12.425Z,-0.36
2023-03-27T22:44:19.944Z,-0.40
2023-03-27T22:49:27.652Z,-0.46
2023-03-27T22:54:35.260Z,-0.53
2023-03-27T22:59:42.666Z,-0.60
2023-03-27T23:04:50.301Z,-0.67
2023-03-27T23:09:57.981Z,-0.75
2023-03-27T23:15:06.261Z,-0.81
2023-03-27T23:20:15.448Z,-0.87
2023-03-27T23:25:23.258Z,-0.93
2023-03-27T23:30:31.193Z,-0.99
2023-03-27T23:35:38.734Z,-1.07
2023-03-27T23:40:46.549Z,-1.14
2023-03-27T23:45:56.073Z,-1.19
2023-03-27T23:51:03.868Z,-1.25
2023-03-27T23:56:12.851Z,-1.31
